LFMP/PGF METAR and TAF weather

Enter ICAO airport designator
Station Type Date Time Source
LFMP METAR 2019/02/20 17:00 UTC NOAA

LFMP 201700Z AUTO 09006KT CAVOK 12/07 Q1025 NOSIG


Station Type Date Time Source
LFMP Decoded METAR 2019/02/20 17:00 UTC NOAA

Perpignan, France (LFMP) 42-44N 002-52E 48M
Feb 20, 2019 - 12:00 PM EST / 2019.02.20 1700 UTC
Wind: from the E (090 degrees) at 7 MPH (6 KT):0
Visibility: greater than 7 mile(s):0
Temperature: 53 F (12 C)
Dew Point: 44 F (7 C)
Relative Humidity: 71%
Pressure (altimeter): 30.27 in. Hg (1025 hPa)
ob: LFMP 201700Z AUTO 09006KT CAVOK 12/07 Q1025 NOSIG
cycle: 17

Station Type Date Time Source
LFMP TAF 2019/02/20 15:22 UTC NOAA

TAF LFMP 201400Z 2015/2115 08008KT 9999 SCT035
BECMG 2019/2022 VRB03KT
TEMPO 2102/2108 4000 BR NSC
BECMG 2108/2110 CAVOK


Example: see airport list